sensor_id;sensor_type;location;lat;lon;timestamp;pressure;altitude;pressure_sealevel;temperature;humidity
23170;BME280;11753;43.144;24.714;2023-06-22T00:00:49;99797.00;;;20.94;100.00
23170;BME280;11753;43.144;24.714;2023-06-22T00:01:50;99793.69;;;20.92;100.00
23170;BME280;11753;43.144;24.714;2023-06-22T00:02:51;99803.00;;;20.89;100.00
23170;BME280;11753;43.144;24.714;2023-06-22T00:03:52;99799.28;;;20.90;100.00
23170;BME280;11753;43.144;24.714;2023-06-22T00:04:53;99797.97;;;20.99;99.83
23170;BME280;11753;43.144;24.714;2023-06-22T00:05:54;99797.00;;;20.94;99.62
23170;BME280;11753;43.144;24.714;2023-06-22T00:06:55;99790.00;;;20.93;100.00
23170;BME280;11753;43.144;24.714;2023-06-22T00:07:56;99800.09;;;20.91;100.00
23170;BME280;11753;43.144;24.714;2023-06-22T00:08:57;99799.06;;;20.92;100.00
23170;BME280;11753;43.144;24.714;2023-06-22T00:09:58;99808.13;;;20.91;100.00
23170;BME280;11753;43.144;24.714;2023-06-22T00:10:59;99805.25;;;20.85;100.00
23170;BME280;11753;43.144;24.714;2023-06-22T00:12:00;99806.16;;;20.79;100.00
23170;BME280;11753;43.144;24.714;2023-06-22T00:13:01;99802.03;;;20.77;100.00
23170;BME280;11753;43.144;24.714;2023-06-22T00:14:02;99801.44;;;20.75;100.00
23170;BME280;11753;43.144;24.714;2023-06-22T00:15:06;99804.28;;;20.80;100.00
23170;BME280;11753;43.144;24.714;2023-06-22T00:16:07;99805.13;;;20.80;100.00
23170;BME280;11753;43.144;24.714;2023-06-22T00:17:08;99805.75;;;20.76;100.00
23170;BME280;11753;43.144;24.714;2023-06-22T00:18:10;99808.22;;;20.71;100.00
23170;BME280;11753;43.144;24.714;2023-06-22T00:19:11;99806.38;;;20.71;100.00
23170;BME280;11753;43.144;24.714;2023-06-22T00:20:12;99808.47;;;20.69;100.00
23170;BME280;11753;43.144;24.714;2023-06-22T00:21:14;99807.66;;;20.62;100.00
23170;BME280;11753;43.144;24.714;2023-06-22T00:22:15;99807.66;;;20.62;100.00
23170;BME280;11753;43.144;24.714;2023-06-22T00:23:17;99811.97;;;20.63;100.00
23170;BME280;11753;43.144;24.714;2023-06-22T00:24:19;99818.56;;;20.67;100.00
23170;BME280;11753;43.144;24.714;2023-06-22T00:25:21;99816.47;;;20.69;100.00
23170;BME280;11753;43.144;24.714;2023-06-22T00:26:22;99822.44;;;20.71;100.00
23170;BME280;11753;43.144;24.714;2023-06-22T00:27:23;99813.59;;;20.71;100.00
23170;BME280;11753;43.144;24.714;2023-06-22T00:28:24;99811.94;;;20.70;100.00
23170;BME280;11753;43.144;24.714;2023-06-22T00:29:25;99818.81;;;20.59;100.00
23170;BME280;11753;43.144;24.714;2023-06-22T00:30:26;99819.41;;;20.61;100.00
23170;BME280;11753;43.144;24.714;2023-06-22T00:31:27;99812.41;;;20.60;100.00
23170;BME280;11753;43.144;24.714;2023-06-22T00:32:27;99811.38;;;20.61;100.00
23170;BME280;11753;43.144;24.714;2023-06-22T00:33:28;99815.34;;;20.52;100.00
23170;BME280;11753;43.144;24.714;2023-06-22T00:34:28;99818.19;;;20.57;100.00
23170;BME280;11753;43.144;24.714;2023-06-22T00:35:29;99810.41;;;20.42;100.00
23170;BME280;11753;43.144;24.714;2023-06-22T00:36:30;99826.66;;;20.41;100.00
23170;BME280;11753;43.144;24.714;2023-06-22T00:37:31;99825.25;;;20.45;100.00
23170;BME280;11753;43.144;24.714;2023-06-22T00:38:32;99811.88;;;20.45;100.00
23170;BME280;11753;43.144;24.714;2023-06-22T00:39:32;99808.78;;;20.48;100.00
23170;BME280;11753;43.144;24.714;2023-06-22T00:40:34;99814.13;;;20.48;100.00
23170;BME280;11753;43.144;24.714;2023-06-22T00:41:34;99803.44;;;20.48;100.00
23170;BME280;11753;43.144;24.714;2023-06-22T00:42:38;99806.53;;;20.45;100.00
23170;BME280;11753;43.144;24.714;2023-06-22T00:43:39;99805.72;;;20.38;100.00
23170;BME280;11753;43.144;24.714;2023-06-22T00:44:42;99804.69;;;20.45;100.00
23170;BME280;11753;43.144;24.714;2023-06-22T00:45:42;99806.09;;;20.48;100.00
23170;BME280;11753;43.144;24.714;2023-06-22T00:46:43;99803.44;;;20.48;100.00
23170;BME280;11753;43.144;24.714;2023-06-22T00:47:44;99801.19;;;20.45;100.00
23170;BME280;11753;43.144;24.714;2023-06-22T00:48:45;99807.53;;;20.50;100.00
23170;BME280;11753;43.144;24.714;2023-06-22T00:49:47;99798.72;;;20.37;100.00
23170;BME280;11753;43.144;24.714;2023-06-22T00:50:49;99795.66;;;20.33;100.00
23170;BME280;11753;43.144;24.714;2023-06-22T00:51:54;99791.56;;;20.30;100.00
23170;BME280;11753;43.144;24.714;2023-06-22T00:52:58;99797.94;;;20.29;100.00
23170;BME280;11753;43.144;24.714;2023-06-22T00:53:59;99792.16;;;20.32;100.00
23170;BME280;11753;43.144;24.714;2023-06-22T00:55:02;99793.56;;;20.35;100.00
23170;BME280;11753;43.144;24.714;2023-06-22T00:56:04;99786.00;;;20.32;100.00
23170;BME280;11753;43.144;24.714;2023-06-22T00:57:06;99791.53;;;20.37;100.00
23170;BME280;11753;43.144;24.714;2023-06-22T00:58:12;99793.59;;;20.28;100.00
23170;BME280;11753;43.144;24.714;2023-06-22T00:59:13;99796.28;;;20.28;100.00
23170;BME280;11753;43.144;24.714;2023-06-22T01:00:18;99794.63;;;20.27;100.00
23170;BME280;11753;43.144;24.714;2023-06-22T01:01:20;99785.81;;;20.20;100.00
23170;BME280;11753;43.144;24.714;2023-06-22T01:02:24;99788.69;;;20.25;100.00
23170;BME280;11753;43.144;24.714;2023-06-22T01:03:25;99791.16;;;20.20;100.00
23170;BME280;11753;43.144;24.714;2023-06-22T01:04:36;99789.13;;;20.22;100.00
23170;BME280;11753;43.144;24.714;2023-06-22T01:05:38;99786.25;;;20.24;100.00
23170;BME280;11753;43.144;24.714;2023-06-22T01:06:45;99796.94;;;20.24;100.00
23170;BME280;11753;43.144;24.714;2023-06-22T01:08:23;99790.94;;;20.28;100.00
23170;BME280;11753;43.144;24.714;2023-06-22T01:09:32;99790.34;;;20.20;100.00
23170;BME280;11753;43.144;24.714;2023-06-22T01:10:54;99787.91;;;20.18;100.00
23170;BME280;11753;43.144;24.714;2023-06-22T01:12:02;99789.94;;;20.23;100.00
23170;BME280;11753;43.144;24.714;2023-06-22T01:13:30;99791.38;;;20.19;100.00
23170;BME280;11753;43.144;24.714;2023-06-22T01:15:47;99797.34;;;20.14;100.00
23170;BME280;11753;43.144;24.714;2023-06-22T01:16:52;99797.78;;;20.18;100.00
23170;BME280;11753;43.144;24.714;2023-06-22T01:17:56;99793.25;;;20.18;100.00
23170;BME280;11753;43.144;24.714;2023-06-22T01:19:01;99802.28;;;20.17;100.00
23170;BME280;11753;43.144;24.714;2023-06-22T01:20:08;99799.84;;;20.16;100.00
23170;BME280;11753;43.144;24.714;2023-06-22T01:21:14;99803.34;;;20.16;100.00
23170;BME280;11753;43.144;24.714;2023-06-22T01:22:17;99798.59;;;20.12;100.00
23170;BME280;11753;43.144;24.714;2023-06-22T01:24:48;99796.16;;;20.10;100.00
23170;BME280;11753;43.144;24.714;2023-06-22T01:29:30;99805.63;;;19.93;100.00
23170;BME280;11753;43.144;24.714;2023-06-22T01:30:34;99793.94;;;19.94;100.00
23170;BME280;11753;43.144;24.714;2023-06-22T01:31:35;99800.94;;;19.95;100.00
23170;BME280;11753;43.144;24.714;2023-06-22T01:32:38;99796.63;;;19.94;100.00
23170;BME280;11753;43.144;24.714;2023-06-22T01:33:42;99805.63;;;19.93;100.00
23170;BME280;11753;43.144;24.714;2023-06-22T01:34:44;99804.81;;;19.92;100.00
23170;BME280;11753;43.144;24.714;2023-06-22T01:35:46;99803.63;;;19.88;100.00
23170;BME280;11753;43.144;24.714;2023-06-22T01:36:47;99806.50;;;19.87;100.00
23170;BME280;11753;43.144;24.714;2023-06-22T01:37:49;99804.84;;;19.86;100.00
23170;BME280;11753;43.144;24.714;2023-06-22T01:38:52;99815.13;;;19.89;100.00
23170;BME280;11753;43.144;24.714;2023-06-22T01:39:55;99813.47;;;19.88;100.00
23170;BME280;11753;43.144;24.714;2023-06-22T01:40:57;99817.34;;;19.92;100.00
23170;BME280;11753;43.144;24.714;2023-06-22T01:41:59;99820.47;;;19.89;100.00
23170;BME280;11753;43.144;24.714;2023-06-22T01:43:01;99818.78;;;20.01;100.00
23170;BME280;11753;43.144;24.714;2023-06-22T01:44:05;99820.44;;;19.95;100.00
23170;BME280;11753;43.144;24.714;2023-06-22T01:45:08;99809.16;;;19.87;100.00
23170;BME280;11753;43.144;24.714;2023-06-22T01:46:10;99813.25;;;19.96;100.00
23170;BME280;11753;43.144;24.714;2023-06-22T01:47:12;99814.28;;;19.95;100.00
23170;BME280;11753;43.144;24.714;2023-06-22T01:48:14;99809.97;;;19.94;100.00
23170;BME280;11753;43.144;24.714;2023-06-22T01:49:15;99807.28;;;20.00;100.00
23170;BME280;11753;43.144;24.714;2023-06-22T01:50:15;99807.06;;;20.02;100.00
23170;BME280;11753;43.144;24.714;2023-06-22T01:51:16;99808.91;;;20.08;100.00
23170;BME280;11753;43.144;24.714;2023-06-22T01:52:18;99814.66;;;20.05;100.00
23170;BME280;11753;43.144;24.714;2023-06-22T01:53:22;99814.66;;;20.05;100.00
23170;BME280;11753;43.144;24.714;2023-06-22T01:54:23;99822.47;;;20.06;100.00
23170;BME280;11753;43.144;24.714;2023-06-22T01:55:24;99822.06;;;20.03;100.00
23170;BME280;11753;43.144;24.714;2023-06-22T01:56:26;99814.28;;;19.95;100.00
23170;BME280;11753;43.144;24.714;2023-06-22T01:57:27;99813.25;;;19.96;100.00
23170;BME280;11753;43.144;24.714;2023-06-22T01:58:29;99815.09;;;20.02;100.00
23170;BME280;11753;43.144;24.714;2023-06-22T01:59:48;99806.84;;;20.10;100.00
23170;BME280;11753;43.144;24.714;2023-06-22T02:01:07;99817.94;;;20.07;100.00
23170;BME280;11753;43.144;24.714;2023-06-22T02:02:11;99817.31;;;20.12;100.00
23170;BME280;11753;43.144;24.714;2023-06-22T02:03:19;99825.94;;;20.07;100.00
23170;BME280;11753;43.144;24.714;2023-06-22T02:04:27;99827.41;;;20.10;100.00
23170;BME280;11753;43.144;24.714;2023-06-22T02:05:35;99818.78;;;20.08;100.00
23170;BME280;11753;43.144;24.714;2023-06-22T02:06:38;99828.00;;;20.05;100.00
23170;BME280;11753;43.144;24.714;2023-06-22T02:07:56;99833.56;;;20.10;100.00
23170;BME280;11753;43.144;24.714;2023-06-22T02:09:02;99836.84;;;20.12;100.00
23170;BME280;11753;43.144;24.714;2023-06-22T02:10:07;99839.72;;;20.17;100.00
23170;BME280;11753;43.144;24.714;2023-06-22T02:11:14;99832.31;;;20.06;100.00
23170;BME280;11753;43.144;24.714;2023-06-22T02:12:18;99838.31;;;20.08;100.00
23170;BME280;11753;43.144;24.714;2023-06-22T02:13:24;99834.81;;;20.01;100.00
23170;BME280;11753;43.144;24.714;2023-06-22T02:14:25;99837.88;;;20.04;100.00
23170;BME280;11753;43.144;24.714;2023-06-22T02:15:27;99835.22;;;20.04;100.00
23170;BME280;11753;43.144;24.714;2023-06-22T02:16:31;99835.81;;;20.06;100.00
23170;BME280;11753;43.144;24.714;2023-06-22T02:17:33;99835.63;;;20.08;100.00
23170;BME280;11753;43.144;24.714;2023-06-22T02:18:34;99832.31;;;20.06;100.00
23170;BME280;11753;43.144;24.714;2023-06-22T02:19:37;99833.56;;;20.03;100.00
23170;BME280;11753;43.144;24.714;2023-06-22T02:20:39;99838.31;;;20.08;100.00
23170;BME280;11753;43.144;24.714;2023-06-22T02:21:40;99833.97;;;20.07;100.00
23170;BME280;11753;43.144;24.714;2023-06-22T02:22:41;99843.41;;;20.16;100.00
23170;BME280;11753;43.144;24.714;2023-06-22T02:23:41;99844.84;;;20.12;100.00
23170;BME280;11753;43.144;24.714;2023-06-22T02:24:42;99836.84;;;20.12;100.00
23170;BME280;11753;43.144;24.714;2023-06-22T02:25:45;99838.91;;;20.10;100.00
23170;BME280;11753;43.144;24.714;2023-06-22T02:26:46;99836.44;;;20.15;100.00
23170;BME280;11753;43.144;24.714;2023-06-22T02:27:47;99832.72;;;20.16;100.00
23170;BME280;11753;43.144;24.714;2023-06-22T02:28:48;99833.53;;;20.17;100.00
23170;BME280;11753;43.144;24.714;2023-06-22T02:29:48;99837.28;;;20.09;100.00
23170;BME280;11753;43.144;24.714;2023-06-22T02:30:49;99829.84;;;20.11;100.00
23170;BME280;11753;43.144;24.714;2023-06-22T02:31:50;99840.09;;;20.14;100.00
23170;BME280;11753;43.144;24.714;2023-06-22T02:32:51;99840.75;;;20.16;100.00
23170;BME280;11753;43.144;24.714;2023-06-22T02:33:59;99841.13;;;20.20;100.00
23170;BME280;11753;43.144;24.714;2023-06-22T02:35:00;99842.78;;;20.14;100.00
23170;BME280;11753;43.144;24.714;2023-06-22T02:36:04;99842.78;;;20.14;100.00
23170;BME280;11753;43.144;24.714;2023-06-22T02:37:05;99839.94;;;20.16;100.00
23170;BME280;11753;43.144;24.714;2023-06-22T02:38:06;99838.06;;;20.16;100.00
23170;BME280;11753;43.144;24.714;2023-06-22T02:39:08;99838.88;;;20.17;100.00
23170;BME280;11753;43.144;24.714;2023-06-22T02:40:11;99838.91;;;20.10;100.00
23170;BME280;11753;43.144;24.714;2023-06-22T02:41:12;99837.88;;;20.11;100.00
23170;BME280;11753;43.144;24.714;2023-06-22T02:42:13;99838.47;;;20.13;100.00
23170;BME280;11753;43.144;24.714;2023-06-22T02:43:15;99841.94;;;20.20;100.00
23170;BME280;11753;43.144;24.714;2023-06-22T02:44:18;99842.59;;;20.16;100.00
23170;BME280;11753;43.144;24.714;2023-06-22T02:45:19;99845.88;;;20.18;100.00
23170;BME280;11753;43.144;24.714;2023-06-22T02:46:19;99833.56;;;20.10;100.00
23170;BME280;11753;43.144;24.714;2023-06-22T02:47:20;99846.72;;;20.05;100.00
23170;BME280;11753;43.144;24.714;2023-06-22T02:48:21;99834.41;;;20.04;100.00
23170;BME280;11753;43.144;24.714;2023-06-22T02:49:23;99846.34;;;20.01;100.00
23170;BME280;11753;43.144;24.714;2023-06-22T02:50:24;99839.53;;;19.99;100.00
23170;BME280;11753;43.144;24.714;2023-06-22T02:51:25;99838.09;;;20.03;100.00
23170;BME280;11753;43.144;24.714;2023-06-22T02:52:26;99843.84;;;20.00;100.00
23170;BME280;11753;43.144;24.714;2023-06-22T02:53:27;99838.91;;;20.03;100.00
23170;BME280;11753;43.144;24.714;2023-06-22T02:54:28;99843.03;;;19.99;100.00
23170;BME280;11753;43.144;24.714;2023-06-22T02:55:29;99843.03;;;19.93;100.00
23170;BME280;11753;43.144;24.714;2023-06-22T02:56:30;99846.75;;;19.92;100.00
23170;BME280;11753;43.144;24.714;2023-06-22T02:57:31;99849.63;;;19.84;100.00
23170;BME280;11753;43.144;24.714;2023-06-22T02:58:32;99855.41;;;19.81;100.00
23170;BME280;11753;43.144;24.714;2023-06-22T02:59:40;99847.16;;;19.89;100.00
23170;BME280;11753;43.144;24.714;2023-06-22T03:00:42;99849.41;;;19.92;100.00
23170;BME280;11753;43.144;24.714;2023-06-22T03:01:43;99850.66;;;19.89;100.00
23170;BME280;11753;43.144;24.714;2023-06-22T03:02:45;99851.06;;;19.93;100.00
23170;BME280;11753;43.144;24.714;2023-06-22T03:03:46;99856.59;;;19.98;100.00
23170;BME280;11753;43.144;24.714;2023-06-22T03:04:47;99847.78;;;19.91;100.00
23170;BME280;11753;43.144;24.714;2023-06-22T03:05:54;99850.44;;;19.91;100.00
23170;BME280;11753;43.144;24.714;2023-06-22T03:06:55;99846.97;;;19.90;100.00
23170;BME280;11753;43.144;24.714;2023-06-22T03:07:55;99859.06;;;19.93;100.00
23170;BME280;11753;43.144;24.714;2023-06-22T03:09:03;99860.09;;;19.92;100.00
23170;BME280;11753;43.144;24.714;2023-06-22T03:10:05;99854.97;;;19.90;100.00
23170;BME280;11753;43.144;24.714;2023-06-22T03:11:07;99853.94;;;19.91;100.00
23170;BME280;11753;43.144;24.714;2023-06-22T03:12:08;99851.06;;;19.93;100.00
23170;BME280;11753;43.144;24.714;2023-06-22T03:13:09;99852.28;;;19.97;100.00
23170;BME280;11753;43.144;24.714;2023-06-22T03:14:10;99855.78;;;20.04;100.00
23170;BME280;11753;43.144;24.714;2023-06-22T03:15:12;99847.97;;;20.09;100.00
23170;BME280;11753;43.144;24.714;2023-06-22T03:16:12;99851.84;;;20.06;100.00
23170;BME280;11753;43.144;24.714;2023-06-22T03:17:13;99840.56;;;20.04;100.00
23170;BME280;11753;43.144;24.714;2023-06-22T03:18:13;99852.66;;;20.07;100.00
23170;BME280;11753;43.144;24.714;2023-06-22T03:19:15;99858.41;;;20.17;100.00
23170;BME280;11753;43.144;24.714;2023-06-22T03:20:17;99860.66;;;20.14;100.00
23170;BME280;11753;43.144;24.714;2023-06-22T03:21:19;99859.44;;;20.16;100.00
23170;BME280;11753;43.144;24.714;2023-06-22T03:22:19;99860.06;;;20.18;100.00
23170;BME280;11753;43.144;24.714;2023-06-22T03:23:20;99856.34;;;20.19;100.00
23170;BME280;11753;43.144;24.714;2023-06-22T03:24:21;99859.03;;;20.19;100.00
23170;BME280;11753;43.144;24.714;2023-06-22T03:25:22;99865.97;;;20.27;100.00
23170;BME280;11753;43.144;24.714;2023-06-22T03:26:23;99864.75;;;20.29;100.00
23170;BME280;11753;43.144;24.714;2023-06-22T03:27:27;99865.75;;;20.28;100.00
23170;BME280;11753;43.144;24.714;2023-06-22T03:28:28;99870.50;;;20.33;100.00
23170;BME280;11753;43.144;24.714;2023-06-22T03:29:29;99871.06;;;20.42;100.00
23170;BME280;11753;43.144;24.714;2023-06-22T03:30:30;99870.69;;;20.45;100.00
23170;BME280;11753;43.144;24.714;2023-06-22T03:31:31;99866.34;;;20.44;100.00
23170;BME280;11753;43.144;24.714;2023-06-22T03:32:32;99878.06;;;20.49;100.00
23170;BME280;11753;43.144;24.714;2023-06-22T03:33:33;99882.78;;;20.54;100.00
23170;BME280;11753;43.144;24.714;2023-06-22T03:34:34;99877.41;;;20.60;100.00
23170;BME280;11753;43.144;24.714;2023-06-22T03:35:39;99886.03;;;20.63;100.00
23170;BME280;11753;43.144;24.714;2023-06-22T03:36:40;99884.03;;;20.58;100.00
23170;BME280;11753;43.144;24.714;2023-06-22T03:37:41;99881.13;;;20.59;100.00
23170;BME280;11753;43.144;24.714;2023-06-22T03:38:42;99890.16;;;20.65;100.00
23170;BME280;11753;43.144;24.714;2023-06-22T03:39:43;99888.06;;;20.74;100.00
23170;BME280;11753;43.144;24.714;2023-06-22T03:40:44;99894.03;;;20.69;100.00
23170;BME280;11753;43.144;24.714;2023-06-22T03:41:45;99888.88;;;20.74;100.00
23170;BME280;11753;43.144;24.714;2023-06-22T03:42:46;99883.53;;;20.74;100.00
23170;BME280;11753;43.144;24.714;2023-06-22T03:43:47;99898.75;;;20.80;100.00
23170;BME280;11753;43.144;24.714;2023-06-22T03:44:48;99885.53;;;20.85;100.00
23170;BME280;11753;43.144;24.714;2023-06-22T03:45:49;99890.25;;;20.90;100.00
23170;BME280;11753;43.144;24.714;2023-06-22T03:46:50;99893.75;;;20.91;99.76
23170;BME280;11753;43.144;24.714;2023-06-22T03:47:51;99892.88;;;20.97;99.69
23170;BME280;11753;43.144;24.714;2023-06-22T03:48:55;99885.31;;;20.94;99.54
23170;BME280;11753;43.144;24.714;2023-06-22T03:49:56;99887.53;;;20.97;99.50
23170;BME280;11753;43.144;24.714;2023-06-22T03:51:00;99886.69;;;21.03;99.64
23170;BME280;11753;43.144;24.714;2023-06-22T03:52:01;99884.19;;;21.08;99.39
23170;BME280;11753;43.144;24.714;2023-06-22T03:53:02;99887.41;;;21.16;99.01
23170;BME280;11753;43.144;24.714;2023-06-22T03:54:03;99887.19;;;21.18;98.52
23170;BME280;11753;43.144;24.714;2023-06-22T03:55:05;99886.75;;;21.21;98.23
23170;BME280;11753;43.144;24.714;2023-06-22T03:56:06;99872.38;;;21.22;98.09
23170;BME280;11753;43.144;24.714;2023-06-22T03:57:08;99885.66;;;21.35;97.08
23170;BME280;11753;43.144;24.714;2023-06-22T03:58:09;99873.38;;;21.28;96.69
23170;BME280;11753;43.144;24.714;2023-06-22T03:59:10;99877.00;;;21.40;96.66
23170;BME280;11753;43.144;24.714;2023-06-22T04:00:11;99881.69;;;21.45;96.47
23170;BME280;11753;43.144;24.714;2023-06-22T04:01:13;99878.56;;;21.48;96.03
23170;BME280;11753;43.144;24.714;2023-06-22T04:02:14;99876.06;;;21.53;96.17
23170;BME280;11753;43.144;24.714;2023-06-22T04:03:15;99874.44;;;21.52;95.95
23170;BME280;11753;43.144;24.714;2023-06-22T04:04:19;99878.06;;;21.57;95.61
23170;BME280;11753;43.144;24.714;2023-06-22T04:05:20;99874.34;;;21.65;95.46
23170;BME280;11753;43.144;24.714;2023-06-22T04:06:21;99879.59;;;21.71;94.68
23170;BME280;11753;43.144;24.714;2023-06-22T04:07:23;99875.09;;;21.72;94.16
23170;BME280;11753;43.144;24.714;2023-06-22T04:08:24;99878.38;;;21.74;94.12
23170;BME280;11753;43.144;24.714;2023-06-22T04:09:24;99878.69;;;21.84;93.85
23170;BME280;11753;43.144;24.714;2023-06-22T04:10:25;99875.56;;;21.87;92.70
23170;BME280;11753;43.144;24.714;2023-06-22T04:11:26;99870.22;;;21.87;92.69
23170;BME280;11753;43.144;24.714;2023-06-22T04:12:27;99868.28;;;21.94;92.33
23170;BME280;11753;43.144;24.714;2023-06-22T04:13:29;99871.38;;;21.91;92.65
23170;BME280;11753;43.144;24.714;2023-06-22T04:14:30;99877.28;;;22.00;92.11
23170;BME280;11753;43.144;24.714;2023-06-22T04:15:31;99877.50;;;21.98;91.69
23170;BME280;11753;43.144;24.714;2023-06-22T04:16:33;99869.22;;;21.82;92.84
23170;BME280;11753;43.144;24.714;2023-06-22T04:17:34;99867.53;;;21.87;93.38
23170;BME280;11753;43.144;24.714;2023-06-22T04:18:35;99869.34;;;21.93;93.05
23170;BME280;11753;43.144;24.714;2023-06-22T04:19:36;99864.56;;;21.95;93.15
23170;BME280;11753;43.144;24.714;2023-06-22T04:20:37;99872.66;;;21.89;92.48
23170;BME280;11753;43.144;24.714;2023-06-22T04:21:38;99881.88;;;21.93;92.75
23170;BME280;11753;43.144;24.714;2023-06-22T04:22:38;99879.38;;;21.98;92.13
23170;BME280;11753;43.144;24.714;2023-06-22T04:23:39;99877.22;;;22.07;92.19
23170;BME280;11753;43.144;24.714;2023-06-22T04:24:40;99872.16;;;21.98;92.70
23170;BME280;11753;43.144;24.714;2023-06-22T04:25:42;99864.56;;;21.95;92.79
23170;BME280;11753;43.144;24.714;2023-06-22T04:26:43;99873.94;;;22.05;92.79
23170;BME280;11753;43.144;24.714;2023-06-22T04:27:46;99879.28;;;22.11;92.54
23170;BME280;11753;43.144;24.714;2023-06-22T04:28:48;99872.97;;;22.24;92.21
23170;BME280;11753;43.144;24.714;2023-06-22T04:29:52;99879.06;;;22.31;91.59
23170;BME280;11753;43.144;24.714;2023-06-22T04:30:53;99881.06;;;22.36;91.15
23170;BME280;11753;43.144;24.714;2023-06-22T04:31:58;99876.44;;;22.43;91.16
23170;BME280;11753;43.144;24.714;2023-06-22T04:33:03;99873.09;;;22.47;90.87
23170;BME280;11753;43.144;24.714;2023-06-22T04:34:05;99866.84;;;22.53;89.87
23170;BME280;11753;43.144;24.714;2023-06-22T04:35:07;99873.59;;;22.56;90.01
23170;BME280;11753;43.144;24.714;2023-06-22T04:36:08;99879.50;;;22.65;89.72
23170;BME280;11753;43.144;24.714;2023-06-22T04:37:09;99877.97;;;22.69;89.59
23170;BME280;11753;43.144;24.714;2023-06-22T04:38:11;99877.41;;;22.67;89.44
23170;BME280;11753;43.144;24.714;2023-06-22T04:39:14;99880.66;;;22.69;89.36
23170;BME280;11753;43.144;24.714;2023-06-22T04:40:19;99873.66;;;22.68;89.47
23170;BME280;11753;43.144;24.714;2023-06-22T04:41:20;99872.78;;;22.74;89.25
23170;BME280;11753;43.144;24.714;2023-06-22T04:42:27;99878.72;;;22.76;88.81
23170;BME280;11753;43.144;24.714;2023-06-22T04:43:28;99870.91;;;22.74;88.91
23170;BME280;11753;43.144;24.714;2023-06-22T04:44:31;99863.81;;;22.80;88.34
23170;BME280;11753;43.144;24.714;2023-06-22T04:45:35;99873.84;;;22.85;88.22
23170;BME280;11753;43.144;24.714;2023-06-22T04:46:38;99881.16;;;22.77;88.47
23170;BME280;11753;43.144;24.714;2023-06-22T04:47:39;99877.53;;;22.90;88.54
23170;BME280;11753;43.144;24.714;2023-06-22T04:48:40;99874.19;;;22.95;88.44
23170;BME280;11753;43.144;24.714;2023-06-22T04:49:41;99879.81;;;23.05;87.87
23170;BME280;11753;43.144;24.714;2023-06-22T04:50:43;99867.81;;;23.08;87.33
23170;BME280;11753;43.144;24.714;2023-06-22T04:51:45;99882.38;;;23.12;87.37
23170;BME280;11753;43.144;24.714;2023-06-22T04:52:47;99873.44;;;23.18;86.51
23170;BME280;11753;43.144;24.714;2023-06-22T04:53:48;99875.53;;;23.16;86.59
23170;BME280;11753;43.144;24.714;2023-06-22T04:54:50;99882.88;;;23.20;86.24
23170;BME280;11753;43.144;24.714;2023-06-22T04:55:56;99882.69;;;23.22;86.52
23170;BME280;11753;43.144;24.714;2023-06-22T04:56:57;99887.09;;;23.16;86.99
23170;BME280;11753;43.144;24.714;2023-06-22T04:57:58;99884.88;;;23.25;87.32
23170;BME280;11753;43.144;24.714;2023-06-22T04:59:05;99887.72;;;23.30;87.20
23170;BME280;11753;43.144;24.714;2023-06-22T05:00:06;99886.78;;;23.36;86.71
23170;BME280;11753;43.144;24.714;2023-06-22T05:01:13;99893.38;;;23.52;85.90
23170;BME280;11753;43.144;24.714;2023-06-22T05:02:14;99896.84;;;23.52;84.73
23170;BME280;11753;43.144;24.714;2023-06-22T05:03:15;99903.38;;;23.56;84.86
23170;BME280;11753;43.144;24.714;2023-06-22T05:04:19;99890.19;;;23.55;84.94
23170;BME280;11753;43.144;24.714;2023-06-22T05:05:20;99906.69;;;23.58;84.81
23170;BME280;11753;43.144;24.714;2023-06-22T05:06:24;99897.50;;;23.66;84.94
23170;BME280;11753;43.144;24.714;2023-06-22T05:07:25;99903.94;;;23.65;84.74
23170;BME280;11753;43.144;24.714;2023-06-22T05:08:26;99906.84;;;23.75;84.88
23170;BME280;11753;43.144;24.714;2023-06-22T05:09:29;99911.41;;;23.75;84.51
23170;BME280;11753;43.144;24.714;2023-06-22T05:10:31;99913.03;;;23.76;84.40
23170;BME280;11753;43.144;24.714;2023-06-22T05:11:31;99913.28;;;23.86;84.07
23170;BME280;11753;43.144;24.714;2023-06-22T05:12:32;99912.25;;;23.87;84.33
23170;BME280;11753;43.144;24.714;2023-06-22T05:13:33;99919.59;;;24.03;83.33
23170;BME280;11753;43.144;24.714;2023-06-22T05:14:37;99908.84;;;23.80;83.98
23170;BME280;11753;43.144;24.714;2023-06-22T05:15:41;99908.25;;;23.89;84.36
23170;BME280;11753;43.144;24.714;2023-06-22T05:16:43;99911.28;;;23.93;84.55
23170;BME280;11753;43.144;24.714;2023-06-22T05:17:44;99908.84;;;24.03;84.28
23170;BME280;11753;43.144;24.714;2023-06-22T05:18:48;99908.72;;;24.10;83.82
23170;BME280;11753;43.144;24.714;2023-06-22T05:19:51;99914.56;;;24.19;83.49
23170;BME280;11753;43.144;24.714;2023-06-22T05:20:53;99904.38;;;24.21;83.34
23170;BME280;11753;43.144;24.714;2023-06-22T05:21:54;99905.06;;;24.28;82.60
23170;BME280;11753;43.144;24.714;2023-06-22T05:22:55;99912.00;;;24.35;82.37
23170;BME280;11753;43.144;24.714;2023-06-22T05:23:57;99913.63;;;24.48;82.01
23170;BME280;11753;43.144;24.714;2023-06-22T05:25:03;99910.56;;;24.56;81.86
23170;BME280;11753;43.144;24.714;2023-06-22T05:26:04;99908.53;;;24.63;81.08
23170;BME280;11753;43.144;24.714;2023-06-22T05:27:09;99914.84;;;24.69;81.17
23170;BME280;11753;43.144;24.714;2023-06-22T05:28:12;99910.41;;;24.75;80.25
23170;BME280;11753;43.144;24.714;2023-06-22T05:29:14;99920.53;;;24.84;79.96
23170;BME280;11753;43.144;24.714;2023-06-22T05:30:15;99918.06;;;24.94;80.03